Time;durP1;ratioP1;P1;durP2;ratioP2;P2;SDS_P1;SDS_P2;PMS_P1;PMS_P2;Temp;Humidity;BMP_temperature;BMP_pressure;BME280_temperature;BME280_humidity;BME280_pressure;Samples;Min_cycle;Max_cycle;Signal;HPM_P1;HPM_P2
2022/03/01 00:01:38;;;;;;;53.77;22.10;;;;;;;-2.69;80.43;102701.06;3560903;81;99643;-91
2022/03/01 00:06:39;;;;;;;55.47;23.13;;;;;;;-2.69;80.44;102709.95;3568573;80;98874;-92
2022/03/01 00:11:40;;;;;;;53.48;23.40;;;;;;;-2.71;80.61;102702.64;3565391;81;99106;-91
2022/03/01 00:16:41;;;;;;;55.40;24.30;;;;;;;-2.69;80.83;102691.63;3571397;81;99346;-92
2022/03/01 00:21:42;;;;;;;53.00;21.60;;;;;;;-2.69;81.14;102694.33;3569072;80;99253;-92
2022/03/01 00:26:43;;;;;;;51.60;22.83;;;;;;;-2.69;80.85;102695.67;3567103;80;99203;-92
2022/03/01 00:31:44;;;;;;;53.83;22.50;;;;;;;-2.69;81.00;102701.06;3576869;81;99538;-91
2022/03/01 00:36:45;;;;;;;58.95;24.20;;;;;;;-2.69;80.96;102689.73;3581940;81;99582;-91
2022/03/01 00:41:47;;;;;;;53.93;22.30;;;;;;;-2.71;80.76;102695.06;3569373;80;99280;-91
2022/03/01 00:46:48;;;;;;;54.17;22.83;;;;;;;-2.70;81.52;102693.49;3571128;81;99363;-93
2022/03/01 00:51:49;;;;;;;64.20;28.87;;;;;;;-2.69;81.55;102701.06;3546611;81;99416;-92
2022/03/01 00:56:50;;;;;;;66.57;27.63;;;;;;;-2.71;81.46;102695.06;3543465;80;99554;-91
2022/03/01 01:01:50;;;;;;;75.10;28.62;;;;;;;-2.74;81.79;102695.55;3541360;80;99188;-91
2022/03/01 01:06:51;;;;;;;67.07;26.37;;;;;;;-2.74;81.79;102695.55;3545777;80;99554;-91
2022/03/01 01:11:52;;;;;;;66.03;24.87;;;;;;;-2.74;82.06;102692.86;3547301;82;99148;-92
2022/03/01 01:16:53;;;;;;;64.87;25.37;;;;;;;-2.79;82.08;102681.41;3539010;80;99151;-91
2022/03/01 01:27:13;;;;;;;64.53;25.30;;;;;;;-2.81;81.81;102694.83;3550963;82;99507;-91
2022/03/01 01:32:14;;;;;;;54.10;23.77;;;;;;;-2.84;82.00;102704.20;3532659;82;99172;-92
2022/03/01 01:37:15;;;;;;;53.17;24.00;;;;;;;-2.85;82.49;102697.72;3544424;82;99344;-91
2022/03/01 01:42:16;;;;;;;63.33;26.97;;;;;;;-2.88;82.23;102699.52;3540782;81;99148;-91
2022/03/01 01:47:17;;;;;;;60.77;27.17;;;;;;;-2.91;82.40;102696.76;3540471;82;99429;-91
2022/03/01 01:52:18;;;;;;;54.80;24.30;;;;;;;-2.94;82.29;102693.20;3548740;82;99400;-90
2022/03/01 01:57:23;;;;;;;54.97;23.80;;;;;;;-2.94;82.49;102699.94;3547205;80;99674;-92
2022/03/01 02:02:25;;;;;;;52.37;23.03;;;;;;;-2.97;82.63;102692.30;3544272;82;99196;-91
2022/03/01 02:07:26;;;;;;;57.90;24.77;;;;;;;-2.98;82.90;102685.28;3548315;80;99501;-91
2022/03/01 02:12:26;;;;;;;50.07;22.17;;;;;;;-3.02;82.66;102682.75;3526279;82;98764;-91
2022/03/01 02:17:28;;;;;;;51.63;22.17;;;;;;;-3.03;83.21;102682.47;3559339;80;99227;-91
2022/03/01 02:22:35;;;;;;;44.58;21.48;;;;;;;-3.05;83.02;102689.97;3545356;81;99366;-91
2022/03/01 02:27:37;;;;;;;49.93;23.10;;;;;;;-3.05;83.41;102684.58;3541308;82;99494;-90
2022/03/01 02:32:40;;;;;;;49.70;21.42;;;;;;;-3.07;83.24;102688.02;3543587;80;99510;-91
2022/03/01 02:37:42;;;;;;;49.97;24.67;;;;;;;-3.08;83.42;102693.11;3548893;81;99126;-92
2022/03/01 02:42:47;;;;;;;55.48;24.35;;;;;;;-3.10;83.48;102685.80;3544864;80;99486;-90
2022/03/01 02:47:48;;;;;;;55.50;24.17;;;;;;;-3.11;83.83;102684.13;3541207;82;26056;-91
2022/03/01 02:52:49;;;;;;;53.73;23.77;;;;;;;-3.13;83.88;102673.30;3524206;80;99314;-91
2022/03/01 02:57:50;;;;;;;53.53;26.33;;;;;;;-3.15;84.03;102672.72;3534981;81;99490;-90
2022/03/01 03:02:51;;;;;;;56.07;25.77;;;;;;;-3.18;83.91;102663.23;3521635;80;99260;-91
2022/03/01 03:07:51;;;;;;;62.57;26.73;;;;;;;-3.20;83.90;102664.00;3532801;80;99518;-90
2022/03/01 03:12:52;;;;;;;57.33;25.08;;;;;;;-3.21;83.95;102666.41;3517249;81;99590;-90
2022/03/01 03:17:54;;;;;;;64.07;26.60;;;;;;;-3.23;84.02;102660.41;3515181;82;34844;-91
2022/03/01 03:22:55;;;;;;;56.90;25.83;;;;;;;-3.24;83.96;102649.86;3515255;82;99688;-91
2022/03/01 03:27:56;;;;;;;60.13;27.20;;;;;;;-3.23;83.77;102644.80;3516400;82;99470;-91
2022/03/01 03:32:57;;;;;;;49.40;23.33;;;;;;;-3.23;84.01;102640.77;3511434;80;99250;-91
2022/03/01 03:37:58;;;;;;;48.43;20.03;;;;;;;-3.26;83.91;102644.73;3527770;81;99535;-90
2022/03/01 03:42:59;;;;;;;46.40;19.10;;;;;;;-3.28;83.81;102640.63;3518054;80;99545;-91
2022/03/01 03:48:00;;;;;;;41.37;17.77;;;;;;;-3.29;84.03;102647.08;3531053;80;32375;-91
2022/03/01 03:53:01;;;;;;;38.90;17.60;;;;;;;-3.29;84.24;102634.95;3503695;82;99259;-91
2022/03/01 03:58:02;;;;;;;44.93;19.50;;;;;;;-3.30;84.24;102636.81;3515671;83;99315;-91
2022/03/01 04:03:03;;;;;;;52.67;19.97;;;;;;;-3.37;84.14;102620.47;3508093;82;99456;-91
2022/03/01 04:08:04;;;;;;;46.60;18.90;;;;;;;-3.32;84.14;102635.41;3513792;81;99753;-91
2022/03/01 04:13:05;;;;;;;58.87;23.67;;;;;;;-3.35;84.78;102636.69;3504612;82;99577;-90
2022/03/01 04:18:06;;;;;;;57.65;22.32;;;;;;;-3.36;84.52;102626.98;3512551;82;33174;-91
2022/03/01 04:23:07;;;;;;;51.03;22.00;;;;;;;-3.39;84.59;102620.70;3511368;82;99365;-91
2022/03/01 04:28:08;;;;;;;45.87;19.90;;;;;;;-3.42;84.41;102615.80;3522986;82;99690;-91
2022/03/01 04:33:09;;;;;;;44.63;18.83;;;;;;;-3.48;84.38;102609.99;3503220;82;98903;-91
2022/03/01 04:38:11;;;;;;;44.10;17.60;;;;;;;-3.52;84.49;102591.83;3507347;82;99436;-91
2022/03/01 04:43:11;;;;;;;44.30;19.50;;;;;;;-3.52;84.53;102594.52;3507500;82;99935;-91
2022/03/01 04:48:12;;;;;;;41.40;16.96;;;;;;;-3.53;84.51;102582.12;3511707;83;32520;-91
2022/03/01 04:53:13;;;;;;;45.53;18.83;;;;;;;-3.55;84.76;102568.08;3517951;80;99492;-91
2022/03/01 04:58:14;;;;;;;49.17;20.10;;;;;;;-3.52;84.78;102569.78;3541152;82;99396;-91
2022/03/01 05:03:15;;;;;;;59.73;24.63;;;;;;;-3.52;84.70;102558.19;3526617;80;99248;-90
2022/03/01 05:08:16;;;;;;;58.60;26.75;;;;;;;-3.56;84.52;102563.77;3539616;82;99253;-90
2022/03/01 05:13:17;;;;;;;77.30;30.23;;;;;;;-3.63;84.96;102558.98;3533085;80;99419;-91
2022/03/01 05:18:18;;;;;;;103.57;40.90;;;;;;;-3.68;84.96;102562.89;3549879;82;26566;-90
2022/03/01 05:23:19;;;;;;;120.63;44.77;;;;;;;-3.75;85.33;102552.26;3541636;82;99189;-91
2022/03/01 05:28:20;;;;;;;110.20;44.30;;;;;;;-3.76;85.77;102551.94;3553519;82;99674;-91
2022/03/01 05:33:20;;;;;;;95.83;38.10;;;;;;;-3.79;85.79;102555.11;3533213;81;99729;-91
2022/03/01 05:38:21;;;;;;;100.87;39.20;;;;;;;-3.88;85.47;102568.58;3551346;82;99544;-91
2022/03/01 05:43:22;;;;;;;83.50;36.00;;;;;;;-3.89;86.49;102564.27;3547547;82;99713;-91
2022/03/01 05:48:23;;;;;;;89.37;37.37;;;;;;;-3.92;86.44;102558.52;3549323;82;33254;-91
2022/03/01 05:53:25;;;;;;;88.80;37.60;;;;;;;-3.91;86.65;102568.23;3534796;82;99080;-90
2022/03/01 05:58:26;;;;;;;80.63;35.00;;;;;;;-3.96;86.17;102572.96;3545827;82;99388;-90
2022/03/01 06:03:27;;;;;;;61.57;25.23;;;;;;;-4.00;86.35;102567.73;3545707;80;99533;-90
2022/03/01 06:08:28;;;;;;;52.97;24.93;;;;;;;-4.00;86.24;102566.39;3548173;82;99480;-90
2022/03/01 06:13:29;;;;;;;57.10;27.23;;;;;;;-4.00;86.29;102573.11;3551460;80;99810;-86
2022/03/01 06:18:30;;;;;;;54.07;27.23;;;;;;;-3.97;86.47;102577.22;3545196;82;32824;-86
2022/03/01 06:23:32;;;;;;;57.60;26.73;;;;;;;-3.97;86.15;102578.56;3537375;82;99204;-85
2022/03/01 06:28:33;;;;;;;68.07;29.90;;;;;;;-3.94;86.35;102576.77;3547900;82;99410;-86
2022/03/01 06:33:34;;;;;;;76.13;31.03;;;;;;;-3.89;86.47;102570.16;3517084;82;99318;-86
2022/03/01 06:38:34;;;;;;;59.48;27.45;;;;;;;-3.83;87.02;102578.67;3545679;80;99901;-86
2022/03/01 06:43:35;;;;;;;54.80;24.73;;;;;;;-3.76;86.89;102584.77;3538854;81;99261;-85
2022/03/01 06:48:36;;;;;;;67.30;27.20;;;;;;;-3.68;87.09;102579.04;3544360;81;99183;-84
2022/03/01 06:53:37;;;;;;;58.63;26.07;;;;;;;-3.57;87.14;102578.24;3542709;80;99036;-85
2022/03/01 06:58:38;;;;;;;51.70;26.40;;;;;;;-3.48;87.38;102570.97;3547624;80;99159;-85
2022/03/01 07:03:42;;;;;;;58.47;26.53;;;;;;;-3.38;87.52;102571.19;3542566;80;99217;-85
2022/03/01 07:08:44;;;;;;;63.03;26.33;;;;;;;-3.25;87.30;102576.88;3557121;80;99507;-85
2022/03/01 07:13:45;;;;;;;64.90;26.82;;;;;;;-3.13;87.29;102578.52;3533856;82;99714;-85
2022/03/01 07:18:45;;;;;;;58.93;27.00;;;;;;;-2.99;87.27;102582.63;3549306;80;99133;-85
2022/03/01 07:23:46;;;;;;;53.07;23.33;;;;;;;-2.87;87.08;102578.05;3533641;80;99104;-85
2022/03/01 07:28:47;;;;;;;58.50;26.03;;;;;;;-2.69;87.18;102585.17;3543492;81;99531;-85
2022/03/01 07:33:48;;;;;;;63.20;30.23;;;;;;;-2.49;86.84;102580.19;3546433;80;99243;-87
2022/03/01 07:38:49;;;;;;;61.13;28.77;;;;;;;-2.36;86.63;102579.39;3522312;82;99786;-86
2022/03/01 07:43:49;;;;;;;65.33;28.87;;;;;;;-2.11;86.61;102585.29;3519508;82;99300;-86
2022/03/01 07:48:51;;;;;;;67.20;28.83;;;;;;;-1.93;86.11;102586.43;3547724;80;99583;-87
2022/03/01 07:53:52;;;;;;;62.75;27.67;;;;;;;-1.73;85.82;102585.97;3529736;81;98891;-89
2022/03/01 07:58:53;;;;;;;53.67;24.93;;;;;;;-1.60;85.62;102587.83;3512918;82;99044;-92
2022/03/01 08:03:54;;;;;;;61.50;27.17;;;;;;;-1.39;85.30;102584.41;3501383;83;99297;-90
2022/03/01 08:08:55;;;;;;;56.00;21.70;;;;;;;-1.19;85.19;102577.16;3487505;83;99424;-90
2022/03/01 08:13:56;;;;;;;45.67;20.10;;;;;;;-0.99;84.49;102582.87;3510082;82;99606;-88
2022/03/01 08:18:56;;;;;;;43.40;22.03;;;;;;;-0.81;83.98;102583.94;3509587;81;99489;-87
2022/03/01 08:23:57;;;;;;;54.90;24.67;;;;;;;-0.59;83.55;102582.07;3477995;83;99842;-86
2022/03/01 08:28:58;;;;;;;38.67;17.67;;;;;;;-0.36;83.46;102588.05;3514102;82;99294;-87
2022/03/01 08:33:59;;;;;;;36.57;17.33;;;;;;;-0.07;82.84;102581.91;3504137;83;99147;-88
2022/03/01 08:39:00;;;;;;;46.24;19.36;;;;;;;0.24;82.07;102569.77;3518717;81;99268;-88
2022/03/01 08:44:01;;;;;;;41.13;18.45;;;;;;;0.57;81.70;102574.41;3502921;82;99425;-87
2022/03/01 08:49:02;;;;;;;42.87;18.67;;;;;;;0.88;81.57;102569.47;3508149;83;99205;-89
2022/03/01 08:54:03;;;;;;;39.60;15.37;;;;;;;1.27;81.44;102573.51;3529694;81;98951;-86
2022/03/01 08:59:05;;;;;;;33.17;16.30;;;;;;;1.71;81.32;102580.78;3621415;80;99135;-85
2022/03/01 09:04:06;;;;;;;34.97;16.47;;;;;;;2.21;80.48;102564.61;3560670;81;98797;-87
2022/03/01 09:09:07;;;;;;;32.03;14.47;;;;;;;2.85;80.44;102546.68;3586356;81;99349;-88
2022/03/01 09:14:08;;;;;;;25.97;13.20;;;;;;;3.41;78.71;102546.27;3577130;81;99086;-89
2022/03/01 09:19:10;;;;;;;29.47;13.63;;;;;;;4.09;78.23;102548.08;3585689;81;98862;-87
2022/03/01 09:24:11;;;;;;;30.23;11.73;;;;;;;4.84;77.17;102550.20;3511147;81;98283;-88
2022/03/01 09:29:12;;;;;;;24.37;10.30;;;;;;;5.69;73.96;102542.42;3578875;81;99007;-88
2022/03/01 09:34:13;;;;;;;20.30;9.30;;;;;;;6.06;72.11;102541.66;3566893;80;98849;-91
2022/03/01 09:39:14;;;;;;;24.03;9.93;;;;;;;6.74;71.57;102530.42;3584913;81;99043;-90
2022/03/01 09:44:17;;;;;;;20.57;8.83;;;;;;;7.28;70.39;102528.59;3567751;80;99261;-87
2022/03/01 09:49:17;;;;;;;20.97;10.13;;;;;;;7.78;68.88;102526.70;3581135;80;99073;-91
2022/03/01 09:54:18;;;;;;;22.87;11.03;;;;;;;8.39;65.43;102514.05;3536582;80;98558;-91
2022/03/01 09:59:19;;;;;;;22.57;10.00;;;;;;;8.89;65.36;102508.63;3465180;83;98909;-91
2022/03/01 10:04:21;;;;;;;20.00;10.13;;;;;;;9.26;62.30;102508.16;3449729;84;99036;-92
2022/03/01 10:09:26;;;;;;;21.00;10.30;;;;;;;9.68;61.15;102514.91;3518219;81;99264;-91
2022/03/01 10:14:33;;;;;;;18.00;8.60;;;;;;;10.04;61.87;102501.14;3444881;82;99357;-91
2022/03/01 10:19:34;;;;;;;21.15;10.10;;;;;;;10.61;61.07;102494.31;3403245;85;99060;-90
2022/03/01 10:24:35;;;;;;;20.90;9.97;;;;;;;11.04;59.45;102492.80;3386733;85;99125;-92
2022/03/01 10:29:45;;;;;;;17.13;9.20;;;;;;;11.54;58.90;102483.47;3449421;84;26503;-94
2022/03/01 10:35:07;;;;;;;20.80;10.20;;;;;;;11.58;54.21;102483.60;3450237;84;99193;-92
2022/03/01 10:40:21;;;;;;;18.15;9.20;;;;;;;11.27;55.61;102478.42;3443465;83;99558;-92
2022/03/01 10:45:33;;;;;;;20.95;10.43;;;;;;;11.68;54.89;102465.32;3391325;85;99535;-92
2022/03/01 10:50:35;;;;;;;17.75;8.45;;;;;;;11.79;53.41;102465.16;3508441;82;99501;-94
2022/03/01 10:55:38;;;;;;;16.95;8.80;;;;;;;11.89;49.71;102452.34;3538941;81;99068;-92
2022/03/01 11:00:39;;;;;;;19.60;11.95;;;;;;;11.16;50.78;102441.35;3549844;82;99443;-94
2022/03/01 11:05:40;;;;;;;23.75;11.03;;;;;;;11.38;51.40;102434.17;3550659;81;34907;-92
2022/03/01 11:10:42;;;;;;;22.17;12.00;;;;;;;11.63;50.84;102426.91;3541270;81;98986;-95
2022/03/01 11:16:09;;;;;;;24.53;11.90;;;;;;;11.39;49.09;102426.72;3514704;82;98385;-95
2022/03/01 11:21:12;;;;;;;23.25;12.82;;;;;;;11.14;48.78;102419.40;3504331;82;99771;-92
2022/03/01 11:26:17;;;;;;;22.50;12.23;;;;;;;11.02;50.08;102411.83;3564151;81;99443;-96
2022/03/01 11:31:27;;;;;;;24.47;12.40;;;;;;;11.02;49.28;102405.53;3562511;80;99289;-95
2022/03/01 11:36:34;;;;;;;22.62;10.48;;;;;;;10.76;49.32;102395.20;3544467;82;35371;-95
2022/03/01 11:41:47;;;;;;;20.17;10.88;;;;;;;10.58;47.97;102384.02;3533247;82;98893;-94
2022/03/01 11:46:50;;;;;;;20.50;10.48;;;;;;;9.96;45.36;102377.32;3546766;80;99081;-95
2022/03/01 11:51:56;;;;;;;22.77;9.65;;;;;;;9.25;48.18;102382.08;3540573;81;98949;-95
2022/03/01 11:56:58;;;;;;;18.93;8.13;;;;;;;9.46;48.43;102382.53;3550471;81;98725;-93
2022/03/01 12:02:00;;;;;;;17.30;8.15;;;;;;;9.24;47.45;102372.22;3529765;82;98741;-94
2022/03/01 12:07:02;;;;;;;16.95;8.60;;;;;;;9.03;47.42;102354.72;3544343;81;98649;-94
2022/03/01 12:12:07;;;;;;;17.15;8.40;;;;;;;8.75;48.06;102356.11;3541526;80;98363;-94
2022/03/01 12:17:18;;;;;;;15.65;9.03;;;;;;;8.78;48.81;102343.13;3561220;80;98928;-93
2022/03/01 12:22:22;;;;;;;14.53;7.63;;;;;;;8.85;49.81;102341.54;3553297;81;98640;-93
2022/03/01 12:27:23;;;;;;;16.32;8.70;;;;;;;9.00;49.08;102333.41;3542447;81;98860;-92
2022/03/01 12:32:24;;;;;;;19.73;8.37;;;;;;;8.69;48.99;102318.39;3552875;82;98706;-93
2022/03/01 12:37:27;;;;;;;18.13;8.27;;;;;;;8.60;48.62;102317.55;3572000;80;98653;-93
2022/03/01 12:42:31;;;;;;;19.32;8.25;;;;;;;8.57;47.06;102318.75;3542260;81;98533;-92
2022/03/01 12:47:32;;;;;;;18.30;8.85;;;;;;;8.42;48.36;102304.91;3554761;81;98411;-93
2022/03/01 12:52:33;;;;;;;17.87;8.40;;;;;;;8.44;48.57;102304.56;3563640;81;98522;-91
2022/03/01 12:57:37;;;;;;;19.30;10.03;;;;;;;8.44;49.67;102303.19;3545481;82;98980;-91
2022/03/01 13:02:38;;;;;;;21.75;9.98;;;;;;;8.29;48.27;102297.56;3551437;82;99005;-91
2022/03/01 13:07:39;;;;;;;18.00;9.17;;;;;;;8.12;50.00;102287.08;3549490;81;98640;-91
2022/03/01 13:12:40;;;;;;;18.40;10.00;;;;;;;8.04;49.32;102278.22;3515406;81;99003;-90
2022/03/01 13:17:52;;;;;;;23.77;10.37;;;;;;;7.98;50.07;102277.56;3519876;82;32538;-92
2022/03/01 13:23:07;;;;;;;22.87;10.50;;;;;;;7.83;49.41;102274.39;3549147;82;99012;-95
2022/03/01 13:28:07;;;;;;;21.25;10.23;;;;;;;7.65;49.62;102262.55;3545972;82;99037;-94
2022/03/01 13:33:13;;;;;;;21.00;10.50;;;;;;;7.48;48.53;102261.61;3522179;81;98752;-89
2022/03/01 13:38:18;;;;;;;18.25;10.35;;;;;;;7.30;49.03;102261.24;3552416;82;99292;-91
2022/03/01 13:43:28;;;;;;;19.32;10.80;;;;;;;7.25;47.97;102253.14;3539269;82;98829;-91
2022/03/01 13:48:31;;;;;;;19.82;10.20;;;;;;;7.19;48.93;102240.70;3543598;82;34892;-90
2022/03/01 13:53:34;;;;;;;22.20;11.20;;;;;;;7.19;50.09;102243.44;3540759;80;98911;-88
2022/03/01 13:58:36;;;;;;;27.70;11.30;;;;;;;7.12;50.04;102240.30;3559813;81;99021;-92
2022/03/01 14:03:37;;;;;;;22.77;10.20;;;;;;;7.05;49.37;102233.91;3531569;82;98738;-89
2022/03/01 14:08:40;;;;;;;31.70;11.83;;;;;;;6.98;50.05;102232.12;3536083;80;99235;-86
2022/03/01 14:13:45;;;;;;;21.62;10.65;;;;;;;6.98;50.49;102231.34;3550943;82;99284;-86
2022/03/01 14:18:50;;;;;;;21.15;10.43;;;;;;;7.07;51.07;102219.87;3554642;80;99277;-88
2022/03/01 14:23:53;;;;;;;22.58;10.93;;;;;;;7.05;51.18;102218.84;3540109;82;98825;-87
2022/03/01 14:29:04;;;;;;;18.60;9.38;;;;;;;6.98;51.73;102210.23;3553340;81;99195;-88
2022/03/01 14:34:06;;;;;;;20.40;9.93;;;;;;;7.02;51.04;102200.28;3541902;82;98650;-87
2022/03/01 14:39:07;;;;;;;20.72;10.10;;;;;;;6.98;51.38;102196.55;3551867;81;98593;-86
2022/03/01 14:44:10;;;;;;;30.20;10.67;;;;;;;6.82;51.36;102191.17;3537526;79;99121;-87
2022/03/01 14:49:10;;;;;;;24.87;12.00;;;;;;;6.73;50.88;102188.12;3541941;82;99170;-88
2022/03/01 14:54:12;;;;;;;50.00;23.83;;;;;;;6.49;50.35;102179.37;3538702;81;98531;-87
2022/03/01 14:59:13;;;;;;;66.07;32.37;;;;;;;6.44;51.73;102174.02;3556106;80;99092;-86
2022/03/01 15:04:14;;;;;;;40.97;20.40;;;;;;;6.40;51.36;102168.36;3552300;81;98736;-86
2022/03/01 15:09:15;;;;;;;26.87;12.87;;;;;;;6.32;52.13;102164.96;3560379;81;99237;-88
2022/03/01 15:14:17;;;;;;;28.53;11.90;;;;;;;6.17;50.80;102161.17;3547618;80;98819;-86
2022/03/01 15:19:18;;;;;;;27.60;13.00;;;;;;;5.94;50.48;102150.48;3564560;81;99271;-88
2022/03/01 15:24:18;;;;;;;22.30;12.58;;;;;;;5.77;50.22;102153.78;3551519;81;98785;-88
2022/03/01 15:29:19;;;;;;;28.10;13.20;;;;;;;5.71;50.76;102139.15;3501914;82;98850;-87
2022/03/01 15:34:22;;;;;;;26.50;12.57;;;;;;;5.64;52.44;102131.37;3470525;83;98980;-87
2022/03/01 15:39:22;;;;;;;25.63;9.97;;;;;;;5.55;52.25;102130.99;3513231;81;99257;-88
2022/03/01 15:44:23;;;;;;;18.47;9.57;;;;;;;5.45;52.70;102125.75;3503909;81;99052;-88
2022/03/01 15:49:24;;;;;;;19.97;9.03;;;;;;;5.33;51.17;102124.86;3486865;83;99046;-89
2022/03/01 15:54:25;;;;;;;19.67;8.47;;;;;;;5.15;50.82;102116.73;3494444;82;98164;-88
2022/03/01 15:59:26;;;;;;;19.70;9.17;;;;;;;5.10;52.75;102119.00;3562283;80;98561;-90
2022/03/01 16:04:27;;;;;;;21.80;10.00;;;;;;;5.05;53.69;102119.09;3556151;80;98802;-90
2022/03/01 16:09:28;;;;;;;21.43;11.17;;;;;;;5.00;55.14;102115.08;3557938;80;98889;-89
2022/03/01 16:14:30;;;;;;;17.60;8.70;;;;;;;4.91;54.36;102118.80;3550616;80;98880;-89
2022/03/01 16:19:33;;;;;;;19.20;10.40;;;;;;;4.75;54.90;102116.85;3550452;81;98639;-88
2022/03/01 16:24:35;;;;;;;25.25;14.00;;;;;;;4.58;55.57;102115.22;3552785;81;98589;-89
2022/03/01 16:29:36;;;;;;;26.70;15.87;;;;;;;4.48;56.49;102107.76;3557839;81;98978;-88
2022/03/01 16:34:36;;;;;;;31.07;17.80;;;;;;;4.30;56.77;102108.01;3548784;81;98690;-88
2022/03/01 16:39:42;;;;;;;31.77;15.63;;;;;;;4.09;57.78;102108.03;3550572;80;98785;-89
2022/03/01 16:44:40;;;;;;;29.75;15.58;;;;;;;3.91;58.30;102112.91;3555732;80;98924;-89
2022/03/01 16:49:41;;;;;;;31.00;14.20;;;;;;;3.74;58.50;102121.28;3565929;81;98779;-87
2022/03/01 16:54:42;;;;;;;33.30;17.00;;;;;;;3.56;59.45;102117.39;3555900;81;98861;-89
2022/03/01 16:59:46;;;;;;;28.90;16.23;;;;;;;3.38;60.25;102116.79;3557104;81;98916;-89
2022/03/01 17:04:47;;;;;;;35.73;18.10;;;;;;;3.19;60.34;102117.80;3557982;80;98528;-87
2022/03/01 17:09:48;;;;;;;43.23;20.83;;;;;;;2.95;60.99;102116.95;3550661;81;99116;-88
2022/03/01 17:14:49;;;;;;;27.97;15.80;;;;;;;2.75;61.43;102115.75;3555425;81;98869;-89
2022/03/01 17:19:50;;;;;;;37.73;18.13;;;;;;;2.61;62.09;102101.16;3546276;79;102178;-90
2022/03/01 17:24:51;;;;;;;38.00;18.00;;;;;;;2.46;62.43;102100.73;3553301;80;99066;-89
2022/03/01 17:29:52;;;;;;;36.80;18.53;;;;;;;2.25;62.42;102101.96;3554967;81;98639;-89
2022/03/01 17:34:54;;;;;;;43.53;19.87;;;;;;;2.02;62.94;102101.28;3552957;80;98772;-86
2022/03/01 17:39:56;;;;;;;40.73;19.40;;;;;;;1.84;63.84;102099.74;3562513;81;98924;-83
2022/03/01 17:44:57;;;;;;;43.87;21.40;;;;;;;1.63;64.43;102099.02;3558049;81;98931;-83
2022/03/01 17:49:58;;;;;;;50.57;23.10;;;;;;;1.44;64.35;102108.05;3551306;80;98792;-83
2022/03/01 17:54:59;;;;;;;56.70;24.47;;;;;;;1.25;65.23;102106.98;3576564;81;98842;-83
2022/03/01 18:00:00;;;;;;;48.87;25.13;;;;;;;1.10;65.95;102109.19;3552368;80;98730;-83
2022/03/01 18:05:01;;;;;;;50.73;25.30;;;;;;;0.97;66.66;102104.87;3569303;81;98644;-83
2022/03/01 18:10:03;;;;;;;56.10;27.03;;;;;;;0.81;67.01;102102.72;3566017;80;99054;-82
2022/03/01 18:15:08;;;;;;;48.70;25.03;;;;;;;0.70;67.54;102104.33;3553918;81;98790;-84
2022/03/01 18:20:09;;;;;;;62.60;27.90;;;;;;;0.56;67.89;102108.13;3552472;80;98903;-84
2022/03/01 18:25:11;;;;;;;76.93;33.70;;;;;;;0.45;68.52;102111.11;3552990;82;98794;-86
2022/03/01 18:30:12;;;;;;;72.77;32.93;;;;;;;0.33;68.74;102116.77;3551119;81;98638;-85
2022/03/01 18:35:13;;;;;;;78.37;35.00;;;;;;;0.20;69.31;102113.76;3538564;82;98758;-84
2022/03/01 18:40:15;;;;;;;83.50;35.03;;;;;;;0.11;69.50;102111.31;3558757;81;99083;-85
2022/03/01 18:45:18;;;;;;;73.87;36.07;;;;;;;0.01;70.03;102108.02;3564753;81;98975;-85
2022/03/01 18:50:20;;;;;;;88.93;41.30;;;;;;;-0.09;70.12;102113.39;3544621;81;98917;-86
2022/03/01 18:55:21;;;;;;;90.40;43.03;;;;;;;-0.18;71.12;102118.80;3564679;78;99091;-86
2022/03/01 19:00:23;;;;;;;74.17;34.83;;;;;;;-0.29;71.56;102103.05;3551641;79;98723;-86
2022/03/01 19:05:24;;;;;;;67.03;32.23;;;;;;;-0.36;71.46;102113.30;3551655;81;98818;-86
2022/03/01 19:10:25;;;;;;;79.00;34.73;;;;;;;-0.47;71.38;102117.83;3559349;81;98820;-87
2022/03/01 19:15:26;;;;;;;73.90;34.60;;;;;;;-0.56;72.40;102118.59;3546532;82;99441;-87
2022/03/01 19:20:28;;;;;;;57.33;29.47;;;;;;;-0.62;72.60;102116.95;3542209;79;99544;-87
2022/03/01 19:25:29;;;;;;;66.97;27.73;;;;;;;-0.67;73.12;102112.86;3542876;81;98343;-87
2022/03/01 19:30:31;;;;;;;90.70;35.27;;;;;;;-0.83;73.38;102104.37;3540177;80;98789;-87
2022/03/01 19:35:32;;;;;;;70.27;32.00;;;;;;;-0.83;73.38;102104.37;3545108;81;98884;-88
2022/03/01 19:40:34;;;;;;;76.03;32.90;;;;;;;-0.88;73.54;102099.50;3555236;80;99269;-88
2022/03/01 19:45:37;;;;;;;115.42;44.65;;;;;;;-0.95;73.89;102088.91;3549964;79;99229;-88
2022/03/01 19:50:40;;;;;;;149.30;56.75;;;;;;;-1.02;74.16;102084.27;3533134;81;99482;-89
2022/03/01 19:55:42;;;;;;;131.90;51.20;;;;;;;-1.07;74.54;102094.22;3539358;81;99503;-88
2022/03/01 20:00:44;;;;;;;103.70;40.25;;;;;;;-1.12;75.04;102094.17;3483015;82;99257;-88
2022/03/01 20:05:46;;;;;;;84.27;34.50;;;;;;;-1.19;75.29;102090.89;3518625;82;28620;-88
2022/03/01 20:10:49;;;;;;;85.42;32.85;;;;;;;-1.25;75.32;102077.91;3516223;79;99301;-87
2022/03/01 20:15:51;;;;;;;80.27;32.57;;;;;;;-1.32;75.63;102069.18;3514652;82;100023;-90
2022/03/01 20:20:52;;;;;;;76.83;33.30;;;;;;;-1.35;75.96;102061.61;3511467;82;99834;-89
2022/03/01 20:25:53;;;;;;;76.40;31.63;;;;;;;-1.39;76.15;102065.89;3528020;81;99204;-89
2022/03/01 20:30:55;;;;;;;73.47;29.37;;;;;;;-1.46;76.20;102064.48;3511612;81;99841;-89
2022/03/01 20:35:56;;;;;;;79.73;33.47;;;;;;;-1.58;75.66;102060.59;3392612;84;28840;-87
2022/03/01 20:40:58;;;;;;;75.70;32.07;;;;;;;-1.61;76.44;102058.95;3453206;84;99091;-88
2022/03/01 20:45:59;;;;;;;76.27;32.03;;;;;;;-1.66;76.58;102044.05;3469825;83;99550;-87
2022/03/01 20:51:00;;;;;;;80.53;31.97;;;;;;;-1.69;76.58;102048.63;3438823;83;99301;-88
2022/03/01 20:56:04;;;;;;;76.13;33.17;;;;;;;-1.78;77.24;102032.09;3378900;85;99263;-88
2022/03/01 21:01:05;;;;;;;71.25;30.35;;;;;;;-1.78;77.24;102032.09;3416506;84;99453;-90
2022/03/01 21:06:08;;;;;;;68.37;30.50;;;;;;;-1.81;76.82;102034.50;3469125;83;28241;-90
2022/03/01 21:11:09;;;;;;;84.15;31.60;;;;;;;-1.84;77.24;102025.03;3449443;83;99489;-93
2022/03/01 21:16:14;;;;;;;82.30;34.83;;;;;;;-1.86;76.78;102031.75;3476976;83;99108;-93
2022/03/01 21:21:16;;;;;;;81.53;33.53;;;;;;;-1.88;76.64;102028.47;3452615;84;99206;-93
2022/03/01 21:26:17;;;;;;;70.37;32.37;;;;;;;-1.86;76.62;102035.25;3461553;83;99149;-92
2022/03/01 21:31:18;;;;;;;76.20;32.77;;;;;;;-1.88;76.26;102024.42;3458099;83;99349;-92
2022/03/01 21:36:19;;;;;;;63.07;28.33;;;;;;;-1.87;76.08;102030.13;3458277;84;26224;-92
2022/03/01 21:41:20;;;;;;;75.17;31.17;;;;;;;-1.87;75.97;102032.83;3448916;83;99417;-92
2022/03/01 21:46:22;;;;;;;72.93;32.23;;;;;;;-1.88;76.94;102028.47;3455759;84;99122;-92
2022/03/01 21:51:25;;;;;;;82.13;34.90;;;;;;;-1.89;76.43;102020.11;3456657;83;99323;-89
2022/03/01 21:56:27;;;;;;;91.47;36.80;;;;;;;-1.91;77.16;102027.09;3460171;83;99201;-89
2022/03/01 22:01:29;;;;;;;90.07;40.07;;;;;;;-1.93;77.45;102014.41;3451334;82;99306;-88
2022/03/01 22:06:29;;;;;;;95.43;40.47;;;;;;;-1.97;77.52;102023.28;3432311;84;26651;-89
2022/03/01 22:11:31;;;;;;;89.67;37.87;;;;;;;-2.03;78.04;102018.91;3420395;83;99198;-89
2022/03/01 22:16:32;;;;;;;100.87;42.67;;;;;;;-2.07;77.74;102025.88;3430229;82;99426;-88
2022/03/01 22:21:33;;;;;;;108.50;47.73;;;;;;;-2.09;78.24;102019.94;3417782;84;99504;-88
2022/03/01 22:26:34;;;;;;;108.93;45.43;;;;;;;-2.14;78.57;102013.93;3434219;84;99361;-87
2022/03/01 22:31:35;;;;;;;106.83;45.07;;;;;;;-2.30;78.84;101991.12;3419833;83;99581;-87
2022/03/01 22:36:36;;;;;;;99.67;44.27;;;;;;;-2.25;78.62;102014.11;3427744;84;26571;-87
2022/03/01 22:41:37;;;;;;;103.70;42.00;;;;;;;-2.34;78.70;102016.44;3420684;82;99310;-87
2022/03/01 22:46:38;;;;;;;110.90;47.47;;;;;;;-2.44;79.09;102010.93;3428863;82;99381;-87
2022/03/01 22:51:40;;;;;;;118.27;48.97;;;;;;;-2.44;79.39;102012.80;3422693;83;99675;-86
2022/03/01 22:56:41;;;;;;;122.03;49.27;;;;;;;-2.45;79.90;102006.61;3428292;84;99913;-87
2022/03/01 23:01:42;;;;;;;112.43;46.80;;;;;;;-2.55;79.69;101996.23;3434768;84;99343;-87